createdAt,value
2023-03-14T00:00:27.658Z,0.30
2023-03-14T00:02:56.268Z,0.30
2023-03-14T00:05:24.358Z,0.30
2023-03-14T00:07:52.381Z,0.30
2023-03-14T00:10:20.888Z,0.35
2023-03-14T00:12:48.758Z,0.30
2023-03-14T00:15:16.768Z,0.30
2023-03-14T00:17:46.702Z,0.30
2023-03-14T00:20:14.978Z,0.30
2023-03-14T00:22:43.721Z,0.30
2023-03-14T00:25:13.824Z,0.30
2023-03-14T00:27:41.892Z,0.30
2023-03-14T00:30:11.687Z,0.40
2023-03-14T00:35:09.935Z,0.30
2023-03-14T00:37:37.788Z,0.30
2023-03-14T00:40:07.847Z,0.40
2023-03-14T00:42:36.461Z,0.45
2023-03-14T00:45:05.837Z,0.32
2023-03-14T00:47:33.809Z,0.40
2023-03-14T00:50:02.197Z,0.43
2023-03-14T00:52:31.615Z,0.30
2023-03-14T00:54:59.550Z,0.30
2023-03-14T00:57:27.525Z,0.30
2023-03-14T00:59:55.586Z,0.30
2023-03-14T01:02:23.553Z,0.30
2023-03-14T01:04:51.881Z,0.30
2023-03-14T01:07:19.788Z,0.20
2023-03-14T01:09:49.219Z,0.30
2023-03-14T01:12:17.165Z,0.28
2023-03-14T01:14:45.236Z,0.30
2023-03-14T01:17:13.167Z,0.38
2023-03-14T01:19:41.186Z,0.30
2023-03-14T01:22:09.141Z,0.38
2023-03-14T01:24:39.041Z,0.30
2023-03-14T01:27:08.468Z,0.30
2023-03-14T01:29:36.443Z,0.30
2023-03-14T01:32:05.429Z,0.30
2023-03-14T01:34:33.517Z,0.30
2023-03-14T01:37:01.521Z,0.40
2023-03-14T01:39:29.956Z,0.38
2023-03-14T01:41:57.964Z,0.30
2023-03-14T01:44:27.253Z,0.30
2023-03-14T01:46:55.238Z,0.30
2023-03-14T01:49:31.776Z,0.30
2023-03-14T01:52:05.781Z,0.28
2023-03-14T01:54:39.786Z,0.30
2023-03-14T01:57:16.045Z,0.30
2023-03-14T01:59:54.757Z,0.30
2023-03-14T02:02:24.472Z,0.40
2023-03-14T02:07:29.441Z,0.40
2023-03-14T02:10:00.244Z,0.40
2023-03-14T02:12:29.238Z,0.40
2023-03-14T02:14:58.472Z,0.30
2023-03-14T02:17:27.346Z,0.30
2023-03-14T02:20:33.133Z,0.30
2023-03-14T02:23:01.965Z,0.30
2023-03-14T02:25:44.509Z,0.30
2023-03-14T02:28:15.340Z,0.30
2023-03-14T02:30:43.712Z,0.30
2023-03-14T02:33:19.571Z,0.25
2023-03-14T02:35:55.315Z,0.30
2023-03-14T02:38:31.453Z,0.30
2023-03-14T02:40:59.556Z,0.30
2023-03-14T02:43:28.934Z,0.30
2023-03-14T02:45:57.665Z,0.40
2023-03-14T02:48:30.172Z,0.30
2023-03-14T02:51:02.081Z,0.40
2023-03-14T02:53:33.237Z,0.40
2023-03-14T02:56:02.516Z,0.30
2023-03-14T02:58:32.477Z,0.30
2023-03-14T03:01:00.565Z,0.30
2023-03-14T03:03:29.053Z,0.30
2023-03-14T03:05:58.606Z,0.25
2023-03-14T03:08:29.029Z,0.30
2023-03-14T03:10:58.650Z,0.30
2023-03-14T03:13:27.607Z,0.30
2023-03-14T03:15:57.672Z,0.30
2023-03-14T03:18:25.613Z,0.35
2023-03-14T03:20:53.618Z,0.20
2023-03-14T03:23:21.732Z,0.35
2023-03-14T03:25:53.704Z,0.22
2023-03-14T03:28:21.875Z,0.40
2023-03-14T03:30:49.932Z,0.40
2023-03-14T03:33:19.415Z,0.30
2023-03-14T03:35:50.218Z,0.30
2023-03-14T03:38:21.207Z,0.20
2023-03-14T03:40:49.341Z,0.40
2023-03-14T03:43:17.362Z,0.40
2023-03-14T03:45:45.445Z,0.40
2023-03-14T03:48:13.479Z,0.50
2023-03-14T03:50:47.996Z,0.20
2023-03-14T03:53:26.993Z,0.30
2023-03-14T03:55:58.766Z,0.32
2023-03-14T03:58:26.741Z,0.30
2023-03-14T04:00:54.898Z,0.30
2023-03-14T04:03:23.017Z,0.50
2023-03-14T04:06:02.215Z,0.50
2023-03-14T04:08:30.952Z,0.45
2023-03-14T04:10:59.995Z,0.30
2023-03-14T04:13:28.762Z,0.50
2023-03-14T04:15:57.999Z,0.30
2023-03-14T04:18:31.153Z,0.30
2023-03-14T04:21:01.198Z,0.30
2023-03-14T04:23:29.077Z,0.30
2023-03-14T04:25:57.003Z,0.30
2023-03-14T04:28:24.998Z,0.45
2023-03-14T04:30:53.046Z,0.32
2023-03-14T04:33:21.045Z,0.30
2023-03-14T04:35:51.132Z,0.22
2023-03-14T04:38:20.497Z,0.40
2023-03-14T04:40:48.466Z,0.30
2023-03-14T04:43:16.412Z,0.40
2023-03-14T04:45:45.539Z,0.40
2023-03-14T04:48:13.883Z,0.35
2023-03-14T04:50:42.026Z,0.40
2023-03-14T04:53:09.944Z,0.32
2023-03-14T04:55:39.350Z,0.20
2023-03-14T04:58:07.410Z,0.40
2023-03-14T05:00:35.335Z,0.40
2023-03-14T05:03:03.353Z,0.32
2023-03-14T05:05:31.492Z,0.30
2023-03-14T05:08:00.148Z,0.40
2023-03-14T05:10:28.562Z,0.30
2023-03-14T05:12:57.951Z,0.40
2023-03-14T05:15:26.363Z,0.38
2023-03-14T05:17:55.310Z,0.40
2023-03-14T05:20:23.768Z,0.40
2023-03-14T05:22:51.650Z,0.25
2023-03-14T05:25:19.886Z,0.40
2023-03-14T05:27:47.785Z,0.40
2023-03-14T05:30:17.554Z,0.50
2023-03-14T05:35:13.358Z,0.30
2023-03-14T05:37:41.467Z,0.30
2023-03-14T05:40:11.193Z,0.47
2023-03-14T05:45:09.828Z,0.40
2023-03-14T05:47:39.097Z,0.35
2023-03-14T05:50:08.100Z,0.40
2023-03-14T05:52:36.091Z,0.30
2023-03-14T05:55:04.142Z,0.32
2023-03-14T05:57:32.250Z,0.30
2023-03-14T06:00:00.281Z,0.30
2023-03-14T06:02:28.433Z,0.35
2023-03-14T06:04:57.863Z,0.40
2023-03-14T06:07:25.915Z,0.40
2023-03-14T06:09:53.900Z,0.50
2023-03-14T06:12:21.956Z,0.30
2023-03-14T06:14:49.942Z,0.30
2023-03-14T06:17:18.083Z,0.20
2023-03-14T06:19:46.086Z,0.30
2023-03-14T06:22:15.691Z,0.20
2023-03-14T06:24:43.626Z,0.30
2023-03-14T06:27:11.616Z,0.30
2023-03-14T06:29:39.523Z,0.40
2023-03-14T06:32:07.466Z,0.30
2023-03-14T06:34:35.744Z,0.40
2023-03-14T06:37:03.635Z,0.30
2023-03-14T06:39:32.964Z,0.22
2023-03-14T06:42:00.938Z,0.30
2023-03-14T06:44:28.908Z,0.40
2023-03-14T06:46:56.901Z,0.40
2023-03-14T06:49:25.235Z,0.30
2023-03-14T06:51:53.208Z,0.30
2023-03-14T06:54:21.193Z,0.38
2023-03-14T06:56:50.461Z,0.35
2023-03-14T06:59:18.437Z,0.30
2023-03-14T07:01:46.484Z,0.40
2023-03-14T07:04:14.530Z,0.40
2023-03-14T07:06:47.370Z,0.30
2023-03-14T07:09:17.982Z,0.50
2023-03-14T07:11:46.212Z,0.40
2023-03-14T07:14:15.555Z,0.40
2023-03-14T07:16:43.629Z,0.40
2023-03-14T07:19:11.599Z,0.32
2023-03-14T07:21:39.604Z,0.30
2023-03-14T07:24:08.049Z,0.25
2023-03-14T07:26:36.129Z,0.30
2023-03-14T07:29:04.674Z,0.30
2023-03-14T07:31:34.238Z,0.38
2023-03-14T07:34:02.279Z,0.40
2023-03-14T07:36:30.261Z,0.22
2023-03-14T07:38:58.192Z,0.60
2023-03-14T07:41:26.354Z,0.40
2023-03-14T07:43:54.254Z,0.30
2023-03-14T07:46:22.244Z,0.30
2023-03-14T07:48:52.767Z,0.40
2023-03-14T07:51:20.656Z,0.25
2023-03-14T07:53:48.704Z,0.30
2023-03-14T07:56:16.609Z,0.40
2023-03-14T07:58:44.579Z,0.40
2023-03-14T08:01:12.626Z,0.30
2023-03-14T08:03:40.637Z,0.40
2023-03-14T08:06:10.194Z,0.30
2023-03-14T08:08:38.152Z,0.40
2023-03-14T08:11:10.134Z,0.40
2023-03-14T08:13:38.583Z,0.40
2023-03-14T08:16:07.885Z,0.40
2023-03-14T08:18:35.968Z,0.30
2023-03-14T08:21:03.957Z,0.30
2023-03-14T08:23:33.320Z,0.30
2023-03-14T08:26:03.970Z,0.20
2023-03-14T08:28:34.141Z,0.40
2023-03-14T08:31:03.203Z,0.43
2023-03-14T08:33:32.301Z,0.40
2023-03-14T08:36:02.723Z,0.30
2023-03-14T08:38:31.121Z,0.30
2023-03-14T08:41:02.017Z,0.30
2023-03-14T08:43:30.952Z,0.40
2023-03-14T08:46:01.275Z,0.40
2023-03-14T08:48:30.291Z,0.30
2023-03-14T08:50:59.115Z,0.50
2023-03-14T08:53:27.025Z,0.33
2023-03-14T08:55:55.905Z,0.30
2023-03-14T08:58:25.685Z,0.33
2023-03-14T09:03:23.985Z,0.30
2023-03-14T09:05:52.268Z,0.30
2023-03-14T09:08:20.258Z,0.28
2023-03-14T09:10:48.187Z,0.40
2023-03-14T09:13:16.192Z,0.30
2023-03-14T09:15:45.511Z,0.30
2023-03-14T09:18:13.470Z,0.30
2023-03-14T09:20:42.854Z,0.40
2023-03-14T09:23:10.902Z,0.20
2023-03-14T09:25:39.014Z,0.25
2023-03-14T09:28:08.112Z,0.30
2023-03-14T09:30:36.222Z,0.50
2023-03-14T09:33:05.575Z,0.38
2023-03-14T09:35:36.496Z,0.30
2023-03-14T09:38:04.530Z,0.20
2023-03-14T09:40:37.526Z,0.30
2023-03-14T09:43:06.252Z,0.30
2023-03-14T09:45:38.990Z,0.32
2023-03-14T09:48:17.900Z,0.30
2023-03-14T09:50:51.399Z,0.37
2023-03-14T09:53:23.706Z,0.32
2023-03-14T09:55:54.425Z,0.22
2023-03-14T09:58:25.674Z,0.35
2023-03-14T10:00:59.359Z,0.30
2023-03-14T10:03:35.032Z,0.30
2023-03-14T10:06:05.337Z,0.25
2023-03-14T10:08:33.384Z,0.30
2023-03-14T10:11:01.881Z,0.30
2023-03-14T10:13:30.663Z,0.20
2023-03-14T10:16:43.940Z,0.30
2023-03-14T10:19:16.840Z,0.20
2023-03-14T10:21:52.492Z,0.30
2023-03-14T10:24:24.952Z,0.30
2023-03-14T10:26:56.191Z,0.45
2023-03-14T10:29:24.249Z,0.20
2023-03-14T10:31:59.941Z,0.32
2023-03-14T10:34:32.244Z,0.30
2023-03-14T10:37:08.769Z,0.30
2023-03-14T10:39:46.738Z,0.40
2023-03-14T10:42:22.813Z,0.47
2023-03-14T10:44:58.270Z,0.30
2023-03-14T10:47:30.272Z,0.30
2023-03-14T10:50:24.551Z,0.25
2023-03-14T10:53:02.651Z,0.30
2023-03-14T10:55:44.150Z,0.40
2023-03-14T10:58:27.565Z,0.20
2023-03-14T11:01:28.272Z,0.20
2023-03-14T11:04:03.654Z,0.30
2023-03-14T11:06:46.546Z,0.30
2023-03-14T11:09:26.815Z,0.30
2023-03-14T11:11:55.327Z,0.30
2023-03-14T11:14:36.794Z,0.30
2023-03-14T11:17:17.871Z,0.30
2023-03-14T11:20:19.434Z,0.30
2023-03-14T11:23:00.965Z,0.40
2023-03-14T11:25:35.899Z,0.22
2023-03-14T11:28:18.246Z,0.20
2023-03-14T11:30:54.847Z,0.30
2023-03-14T11:33:29.493Z,0.20
2023-03-14T11:36:08.826Z,0.30
2023-03-14T11:38:48.400Z,0.30
2023-03-14T11:41:21.714Z,0.30
2023-03-14T11:43:54.456Z,0.35
2023-03-14T11:46:28.966Z,0.40
2023-03-14T11:49:07.839Z,0.25
2023-03-14T11:51:40.582Z,0.38
2023-03-14T11:54:22.955Z,0.22
2023-03-14T11:56:59.704Z,0.30
2023-03-14T11:59:41.148Z,0.50
2023-03-14T12:02:24.240Z,0.35
2023-03-14T12:05:32.797Z,0.30
2023-03-14T12:08:35.124Z,0.40
2023-03-14T12:11:14.102Z,0.30
2023-03-14T12:13:48.017Z,0.40
2023-03-14T12:16:41.074Z,0.40
2023-03-14T12:19:33.094Z,0.30
2023-03-14T12:22:20.791Z,0.30
2023-03-14T12:24:55.220Z,0.30
2023-03-14T12:28:07.239Z,0.30
2023-03-14T12:30:40.626Z,0.40
2023-03-14T12:33:35.976Z,0.40
2023-03-14T12:36:13.524Z,0.30
2023-03-14T12:39:12.364Z,0.40
2023-03-14T12:41:46.683Z,0.30
2023-03-14T12:44:49.769Z,0.30
2023-03-14T12:48:09.851Z,0.40
2023-03-14T12:50:44.745Z,0.40
2023-03-14T12:53:55.152Z,0.30
2023-03-14T12:56:29.961Z,0.30
2023-03-14T12:59:35.802Z,0.30
2023-03-14T13:02:25.775Z,0.38
2023-03-14T13:05:06.648Z,0.50
2023-03-14T13:08:00.162Z,0.40
2023-03-14T13:10:36.915Z,0.22
2023-03-14T13:13:21.040Z,0.40
2023-03-14T13:15:52.228Z,0.40
2023-03-14T13:18:31.994Z,0.35
2023-03-14T13:23:39.260Z,0.40
2023-03-14T13:26:15.790Z,0.40
2023-03-14T13:28:44.195Z,0.40
2023-03-14T13:31:25.466Z,0.38
2023-03-14T13:34:02.202Z,0.40
2023-03-14T13:36:31.501Z,0.30
2023-03-14T13:39:02.482Z,0.30
2023-03-14T13:41:31.113Z,0.30
2023-03-14T13:44:07.741Z,0.30
2023-03-14T13:46:38.241Z,0.22
2023-03-14T13:49:12.766Z,0.30
2023-03-14T13:51:42.577Z,0.30
2023-03-14T13:56:44.802Z,0.35
2023-03-14T13:59:24.871Z,0.38
2023-03-14T14:01:55.044Z,0.35
2023-03-14T14:04:27.358Z,0.30
2023-03-14T14:06:59.888Z,0.22
2023-03-14T14:09:31.163Z,0.38
2023-03-14T14:12:20.925Z,0.40
2023-03-14T14:17:33.234Z,0.30
2023-03-14T14:20:06.090Z,0.40
2023-03-14T14:22:36.428Z,0.40
2023-03-14T14:25:05.871Z,0.30
2023-03-14T14:27:40.138Z,0.30
2023-03-14T14:30:29.251Z,0.30
2023-03-14T14:33:19.302Z,0.40
2023-03-14T14:35:58.370Z,0.30
2023-03-14T14:38:28.793Z,0.30
2023-03-14T14:41:04.389Z,0.40
2023-03-14T14:43:43.354Z,0.40
2023-03-14T14:46:18.292Z,0.38
2023-03-14T14:48:50.120Z,0.40
2023-03-14T14:51:27.920Z,0.50
2023-03-14T14:54:15.613Z,0.40
2023-03-14T14:56:51.186Z,0.40
2023-03-14T14:59:29.952Z,0.40
2023-03-14T15:02:00.581Z,0.43
2023-03-14T15:04:31.701Z,0.40
2023-03-14T15:07:00.026Z,0.40
2023-03-14T15:09:29.230Z,0.30
2023-03-14T15:11:57.118Z,0.40
2023-03-14T15:14:25.108Z,0.30
2023-03-14T15:16:53.265Z,0.52
2023-03-14T15:19:26.709Z,0.47
2023-03-14T15:21:55.436Z,0.50
2023-03-14T15:24:24.358Z,0.60
2023-03-14T15:26:53.997Z,0.68
2023-03-14T15:31:49.687Z,0.40
2023-03-14T15:34:17.746Z,0.50
2023-03-14T15:36:45.866Z,0.60
2023-03-14T15:39:13.966Z,0.47
2023-03-14T15:41:41.917Z,0.60
2023-03-14T15:44:11.082Z,0.52
2023-03-14T15:46:38.997Z,0.50
2023-03-14T15:49:06.983Z,0.40
2023-03-14T15:51:34.837Z,0.55
2023-03-14T15:54:03.374Z,0.50
2023-03-14T15:56:31.978Z,0.50
2023-03-14T15:59:00.210Z,0.65
2023-03-14T16:01:29.614Z,0.60
2023-03-14T16:03:57.919Z,0.50
2023-03-14T16:06:26.040Z,0.40
2023-03-14T16:08:53.977Z,0.43
2023-03-14T16:11:23.009Z,0.50
2023-03-14T16:13:51.272Z,0.60
2023-03-14T16:16:19.289Z,0.77
2023-03-14T16:18:48.659Z,0.57
2023-03-14T16:21:19.373Z,0.50
2023-03-14T16:23:48.155Z,0.75
2023-03-14T16:26:19.038Z,0.60
2023-03-14T16:28:48.235Z,0.60
2023-03-14T16:31:21.159Z,0.65
2023-03-14T16:33:50.539Z,0.60
2023-03-14T16:36:18.632Z,0.63
2023-03-14T16:38:47.026Z,0.50
2023-03-14T16:41:17.905Z,0.60
2023-03-14T16:43:46.043Z,0.60
2023-03-14T16:46:17.727Z,0.60
2023-03-14T16:48:46.942Z,0.70
2023-03-14T16:51:17.000Z,0.50
2023-03-14T16:53:48.709Z,0.70
2023-03-14T16:56:17.370Z,0.60
2023-03-14T16:58:45.694Z,0.68
2023-03-14T17:01:18.256Z,0.75
2023-03-14T17:03:48.784Z,0.50
2023-03-14T17:06:21.259Z,0.50
2023-03-14T17:08:49.165Z,0.60
2023-03-14T17:11:17.204Z,0.40
2023-03-14T17:13:45.662Z,0.40
2023-03-14T17:16:15.006Z,0.60
2023-03-14T17:18:43.122Z,0.45
2023-03-14T17:21:11.108Z,0.55
2023-03-14T17:23:41.069Z,0.50
2023-03-14T17:26:09.406Z,0.68
2023-03-14T17:28:39.754Z,0.70
2023-03-14T17:31:10.676Z,0.40
2023-03-14T17:33:38.724Z,0.52
2023-03-14T17:36:32.826Z,0.50
2023-03-14T17:39:02.142Z,0.40
2023-03-14T17:41:30.081Z,0.57
2023-03-14T17:43:58.298Z,0.57
2023-03-14T17:46:27.193Z,0.60
2023-03-14T17:48:55.160Z,0.40
2023-03-14T17:51:23.186Z,0.50
2023-03-14T17:53:51.199Z,0.50
2023-03-14T17:56:20.478Z,0.50
2023-03-14T17:58:48.372Z,0.90
2023-03-14T18:01:19.127Z,0.77
2023-03-14T18:03:48.008Z,0.50
2023-03-14T18:06:18.634Z,0.40
2023-03-14T18:08:47.263Z,0.50
2023-03-14T18:11:18.168Z,0.30
2023-03-14T18:13:47.621Z,0.57
2023-03-14T18:16:16.357Z,0.70
2023-03-14T18:18:48.588Z,0.50
2023-03-14T18:21:18.252Z,0.43
2023-03-14T18:23:48.253Z,0.40
2023-03-14T18:26:16.156Z,0.50
2023-03-14T18:28:44.150Z,0.40
2023-03-14T18:31:18.241Z,0.70
2023-03-14T18:33:47.905Z,0.50
2023-03-14T18:36:16.654Z,0.57
2023-03-14T18:38:48.438Z,0.60
2023-03-14T18:41:20.913Z,0.60
2023-03-14T18:43:48.825Z,0.40
2023-03-14T18:46:18.210Z,0.40
2023-03-14T18:48:46.124Z,0.52
2023-03-14T18:51:17.127Z,0.50
2023-03-14T18:53:48.555Z,0.50
2023-03-14T18:56:18.060Z,0.57
2023-03-14T18:58:46.417Z,0.50
2023-03-14T19:01:17.643Z,0.30
2023-03-14T19:03:48.324Z,0.30
2023-03-14T19:06:18.039Z,0.50
2023-03-14T19:08:45.920Z,0.40
2023-03-14T19:11:15.513Z,0.60
2023-03-14T19:16:14.284Z,0.60
2023-03-14T19:18:42.866Z,0.60
2023-03-14T19:21:15.459Z,0.55
2023-03-14T19:23:48.840Z,0.60
2023-03-14T19:26:18.561Z,0.40
2023-03-14T19:28:46.438Z,0.47
2023-03-14T19:31:14.993Z,0.55
2023-03-14T19:33:43.456Z,0.50
2023-03-14T19:36:23.456Z,0.57
2023-03-14T19:38:53.235Z,0.55
2023-03-14T19:41:29.816Z,0.52
2023-03-14T19:44:06.446Z,0.70
2023-03-14T19:46:42.935Z,0.50
2023-03-14T19:49:16.584Z,0.68
2023-03-14T19:51:52.204Z,0.50
2023-03-14T19:54:25.902Z,0.60
2023-03-14T19:56:59.926Z,0.60
2023-03-14T19:59:31.367Z,0.55
2023-03-14T20:02:04.838Z,0.40
2023-03-14T20:04:38.895Z,0.40
2023-03-14T20:07:13.928Z,0.60
2023-03-14T20:09:47.343Z,0.40
2023-03-14T20:12:26.175Z,0.50
2023-03-14T20:14:59.593Z,0.60
2023-03-14T20:17:35.571Z,0.60
2023-03-14T20:20:11.029Z,0.50
2023-03-14T20:22:45.680Z,0.80
2023-03-14T20:25:22.870Z,0.60
2023-03-14T20:27:55.199Z,0.50
2023-03-14T20:30:23.625Z,0.60
2023-03-14T20:32:51.913Z,0.50
2023-03-14T20:35:24.275Z,0.60
2023-03-14T20:37:56.062Z,1.65
2023-03-14T20:40:29.949Z,0.55
2023-03-14T20:43:00.541Z,0.70
2023-03-14T20:45:28.960Z,1.02
2023-03-14T20:48:06.672Z,0.60
2023-03-14T20:50:35.500Z,0.55
2023-03-14T20:53:04.888Z,0.50
2023-03-14T20:55:32.845Z,0.60
2023-03-14T20:58:01.408Z,0.50
2023-03-14T21:00:29.366Z,0.50
2023-03-14T21:02:57.324Z,0.30
2023-03-14T21:05:25.911Z,0.45
2023-03-14T21:07:53.842Z,0.45
2023-03-14T21:10:23.169Z,0.50
2023-03-14T21:12:51.062Z,0.50
2023-03-14T21:15:19.051Z,0.60
2023-03-14T21:17:46.947Z,0.55
2023-03-14T21:20:16.611Z,0.50
2023-03-14T21:22:44.561Z,0.52
2023-03-14T21:25:12.992Z,0.60
2023-03-14T21:27:43.230Z,0.52
2023-03-14T21:30:13.494Z,0.30
2023-03-14T21:32:41.657Z,0.60
2023-03-14T21:35:10.490Z,0.52
2023-03-14T21:37:38.559Z,0.50
2023-03-14T21:40:08.903Z,0.52
2023-03-14T21:42:37.112Z,0.60
2023-03-14T21:45:08.204Z,0.40
2023-03-14T21:47:36.262Z,0.60
2023-03-14T21:50:04.418Z,0.50
2023-03-14T21:52:32.373Z,0.40
2023-03-14T21:55:00.329Z,0.63
2023-03-14T21:57:29.809Z,0.60
2023-03-14T21:59:57.871Z,0.60
2023-03-14T22:02:27.318Z,0.60
2023-03-14T22:07:23.002Z,0.70
2023-03-14T22:09:50.848Z,0.40
2023-03-14T22:12:19.574Z,0.60
2023-03-14T22:14:49.296Z,0.60
2023-03-14T22:19:46.729Z,0.57
2023-03-14T22:22:14.715Z,0.57
2023-03-14T22:24:42.864Z,0.70
2023-03-14T22:27:13.135Z,0.50
2023-03-14T22:29:41.339Z,0.60
2023-03-14T22:32:12.109Z,0.40
2023-03-14T22:34:40.038Z,0.50
2023-03-14T22:37:09.556Z,0.60
2023-03-14T22:42:05.598Z,0.80
2023-03-14T22:44:33.579Z,0.60
2023-03-14T22:47:02.080Z,0.70
2023-03-14T22:49:32.586Z,0.40
2023-03-14T22:52:00.573Z,0.45
2023-03-14T22:54:29.866Z,0.55
2023-03-14T22:59:25.706Z,0.43
2023-03-14T23:01:53.616Z,0.50
2023-03-14T23:04:21.703Z,0.52
2023-03-14T23:06:49.619Z,0.73
2023-03-14T23:09:17.901Z,0.60
2023-03-14T23:11:47.198Z,0.63
2023-03-14T23:14:15.179Z,0.70
2023-03-14T23:16:43.206Z,0.52
2023-03-14T23:19:11.172Z,0.70
2023-03-14T23:21:39.289Z,0.60
2023-03-14T23:24:08.265Z,0.40
2023-03-14T23:26:36.285Z,0.50
2023-03-14T23:29:06.495Z,0.52
2023-03-14T23:31:34.651Z,0.47
2023-03-14T23:34:02.765Z,0.60
2023-03-14T23:36:30.878Z,0.57
2023-03-14T23:38:58.753Z,0.70
2023-03-14T23:41:26.700Z,0.40
2023-03-14T23:43:54.590Z,0.50
2023-03-14T23:46:23.821Z,0.50
2023-03-14T23:48:52.489Z,0.50
2023-03-14T23:51:20.412Z,0.60
2023-03-14T23:53:48.945Z,0.50
2023-03-14T23:56:18.186Z,0.50
2023-03-14T23:58:46.185Z,0.60
